LGKO

Kos Airport

Kos Island, Greece
TAF LGKO 252300Z 2600/2624 31010KT 9999 FEW020
Issued Valid From Valid To
Apr-25 @ 23:00 UTC
(5 hours ago)
Apr-26 @ 00:00 UTC
(4 hours ago)
Apr-27 @ 00:00 UTC
(in 20 hours)
Apr-26 @ 00:00 to Apr-27 @ 00:00
TAF LGKO 252300Z 2600/2624 31010KT 9999 FEW020
Wind Visibility Clouds
310° at 10 knots 10,000+ meters
  • Few at 2,000' AGL
TAF LGKO 252300Z 2600/2624 31010KT 9999 FEW020
Issued Apr-25 @ 23:00 UTC
(5 hours ago)
Valid From Apr-26 @ 00:00 UTC
(4 hours ago)
Valid To Apr-27 @ 00:00 UTC
(in 20 hours)
Apr-26 @ 00:00 - Apr-27 @ 00:00
Wind Visibility
310° at 10 knots 10,000+ meters
Clouds
  • Few at 2,000' AGL